x

La Perouse Bank (46206) Wave Buoy

3:00pm - Sat 3rd Dec 2016 All times are PST. -8 hours from GMT.

  • Sig Wave height 14.8ft
  • Peak Period 16s
  • Wind
    16mph, 22mph gusts
  • Sea Temp 56°f
  • Air Temp 50°f
  • Sea Pressure 1021.2mb
  • La Perouse Bank
  • La Perouse Bank

More Historic Weather Station data

Upgrade to MSW Pro to gain access to the past 30 days of data for over 8000 Wavebouys and Weather Stations around the globe.

Join Pro

Comparision Forecast

View Surf forecast
   
Sat 12/03 3:00pm 15ft 16s 16 22 mph 1021.2mb 56f 50f
2:00pm 16.5ft 15s 16 22 mph 1021.8mb 56f 50f
1:00pm 15.5ft 17s 11 18 mph 1022.6mb 56f 49f
12:00pm 16.5ft 16s 16 20 mph 1023.1mb 56f 49f
11:00am 15.5ft 15s 18 25 mph 1023.7mb 56f 49f
10:00am 18.5ft 16s 22 31 mph 1023.7mb 56f 48f
9:00am 19.5ft 16s 18 22 mph 1023.4mb 57f 51f
8:00am 19.5ft 16s 16 22 mph 1023.1mb 57f 49f
7:00am 18.5ft 16s 16 22 mph 1022.8mb 57f 50f
6:00am 18.5ft 14s 13 20 mph 1023.5mb 57f 48f
5:00am 18ft 16s 20 27 mph 1022.6mb 57f 52f
4:00am 19ft 16s 18 22 mph 1022.6mb 57f 51f
3:00am 18.5ft 18s 20 25 mph 1022.6mb 57f 51f
2:00am 18ft 14s 22 27 mph 1022.3mb 57f 51f
1:00am 18ft 16s 18 27 mph 1022.3mb 57f 51f
12:00am 18ft 17s 20 25 mph 1022.1mb 56f 52f
Fri 12/02 11:00pm 19.5ft 15s 22 29 mph 1021.8mb 57f 52f
10:00pm 18ft 15s 18 25 mph 1021.1mb 56f 51f
9:00pm 16ft 15s 20 25 mph 1020.3mb 56f 51f
8:00pm 15ft 12s 20 34 mph 1019.9mb 56f 51f
6:00pm 13ft 12s 20 27 mph 1018.8mb 57f 52f
5:00pm 12ft 11s 22 27 mph 1018.4mb 57f 52f
4:00pm 12.5ft 12s 18 20 mph 1018.3mb 57f 52f
3:00pm 12.5ft 14s 20 27 mph 1017.8mb 57f 53f
2:00pm 13.5ft 12s 25 31 mph 1017.4mb 58f 52f
1:00pm 11ft 12s 22 29 mph 1017.4mb 58f 53f
11:00am 13ft 13s 22 27 mph 1016.7mb 57f 54f
10:00am 11.5ft 12s 20 27 mph 1016.5mb 58f 54f
9:00am 12ft 13s 25 29 mph 1016.2mb 57f 53f
8:00am 10.5ft 13s 27 31 mph 1016.4mb 57f 53f
7:00am  -   -  22
mph
- - 53f
6:00am 11ft 12s 22 27 mph 1018.1mb 57f 53f
5:00am 12ft 11s 22 27 mph 1019.1mb 57f 52f
4:00am 11.5ft 12s 25 31 mph 1019mb 56f 53f
2:00am 10.5ft 12s 22 29 mph 1020.4mb 57f 53f
1:00am 10.5ft 12s 22 25 mph 1021.2mb 56f 53f
12:00am 11ft 12s 20 22 mph 1021.6mb 56f 53f
Thu 12/01 11:00pm 10.5ft 12s 16 18 mph 1021.9mb 56f 53f
10:00pm 11ft 11s 16 18 mph 1022.2mb 56f 53f
9:00pm 10.5ft 11s 16 18 mph 1022mb 56f 53f
8:00pm 9ft 12s 7 9 mph 1022.4mb 56f 52f
7:00pm 9ft 11s 9 11 mph 1022.4mb 56f 52f
6:00pm 9ft 12s 13 16 mph 1022.4mb 56f 53f
5:00pm 8ft 12s 16 18 mph 1022.2mb 56f 52f
4:00pm 8ft 12s 18 25 mph 1022.1mb 56f 51f
3:00pm 8ft 13s 13 16 mph 1022.4mb 56f 50f
2:00pm 8ft 12s 11 16 mph 1022.4mb 56f 50f
1:00pm 9ft 13s 9 11 mph 1022.5mb 56f 50f
12:00pm 9ft 12s 11 16 mph 1022.8mb 56f 51f
11:00am 9ft 12s 7 13 mph 1023.3mb 56f 49f
9:00am 11.5ft 12s 11 13 mph 1022.9mb 56f 48f
8:00am 12ft 11s 7 11 mph 1022.8mb 56f 48f
7:00am 12ft 13s 4 9 mph 1022.7mb 56f 48f
6:00am 12ft 13s 4 7 mph 1022.9mb 56f 47f
5:00am 11ft 12s 9 13 mph 1022.6mb 56f 46f
4:00am 11ft 14s 4 7 mph 1022.1mb 56f 48f
3:00am 11.5ft 14s 11 13 mph 1022.5mb 56f 47f
2:00am 11.5ft 13s 11 16 mph 1022.2mb 56f 49f
1:00am 13ft 12s 11 20 mph 1021.9mb 56f 48f
12:00am 13.5ft 14s 16 20 mph 1021.1mb 56f 49f
Wed 11/30 11:00pm 13ft 13s 13 20 mph 1021.2mb 56f 49f
10:00pm 15ft 14s 20 25 mph 1020.5mb 56f 50f
9:00pm 16.5ft 14s 25 31 mph 1020.3mb 57f 49f
8:00pm 16ft 14s 22 27 mph 1020mb 57f 50f
7:00pm 18.5ft 12s 22 27 mph 1019.6mb 57f 50f
6:00pm 18ft 14s 22 27 mph 1019.1mb 57f 51f
5:00pm 17.5ft 14s 20 27 mph 1018.7mb 57f 50f
2:00pm 19ft 12s 27 31 mph 1016.7mb 57f 51f
1:00pm 18.5ft 12s 29 36 mph 1016mb 57f 52f
12:00pm 17.5ft 13s 31 45 mph 1015.3mb 58f 51f
11:00am 18ft 12s 29 36 mph 1014.9mb 58f 51f
10:00am 17ft 12s 31 40 mph 1013.8mb 58f 51f
9:00am 15.5ft 12s 36 45 mph 1012.2mb 59f 51f
8:00am 18ft 12s 36 45 mph 1010.6mb 58f 52f
7:00am 17.5ft 12s 38
mph
1008.9mb 58f 52f
6:00am 16.5ft 11s 34 40 mph 1007.6mb 58f 51f
5:00am  -   -  31
mph
- - -
4:00am 14ft 10s 16 22 mph 1003.9mb 58f 50f
3:00am  -   -  36
mph
- - -
2:00am 14ft 10s 18 29 mph 1002mb 58f 52f